sensor_id;sensor_type;location;lat;lon;timestamp;P1;durP1;ratioP1;P2;durP2;ratioP2
3341;SDS011;1684;50.748;6.154;2023-01-30T00:01:02;55.50;;;26.93;;
3341;SDS011;1684;50.748;6.154;2023-01-30T00:03:31;50.37;;;23.73;;
3341;SDS011;1684;50.748;6.154;2023-01-30T00:06:01;49.10;;;22.97;;
3341;SDS011;1684;50.748;6.154;2023-01-30T00:08:30;59.03;;;27.67;;
3341;SDS011;1684;50.748;6.154;2023-01-30T00:11:02;61.20;;;27.53;;
3341;SDS011;1684;50.748;6.154;2023-01-30T00:13:30;55.87;;;25.17;;
3341;SDS011;1684;50.748;6.154;2023-01-30T00:15:58;48.93;;;24.17;;
3341;SDS011;1684;50.748;6.154;2023-01-30T00:18:27;55.37;;;25.40;;
3341;SDS011;1684;50.748;6.154;2023-01-30T00:20:55;49.00;;;23.97;;
3341;SDS011;1684;50.748;6.154;2023-01-30T00:23:26;55.70;;;24.70;;
3341;SDS011;1684;50.748;6.154;2023-01-30T00:25:54;66.03;;;25.83;;
3341;SDS011;1684;50.748;6.154;2023-01-30T00:28:23;58.70;;;26.17;;
3341;SDS011;1684;50.748;6.154;2023-01-30T00:30:52;47.17;;;21.47;;
3341;SDS011;1684;50.748;6.154;2023-01-30T00:33:21;45.53;;;22.50;;
3341;SDS011;1684;50.748;6.154;2023-01-30T00:35:50;53.27;;;28.10;;
3341;SDS011;1684;50.748;6.154;2023-01-30T00:38:19;56.63;;;26.30;;
3341;SDS011;1684;50.748;6.154;2023-01-30T00:40:49;47.43;;;24.20;;
3341;SDS011;1684;50.748;6.154;2023-01-30T00:43:17;61.63;;;24.57;;
3341;SDS011;1684;50.748;6.154;2023-01-30T00:46:04;60.37;;;33.13;;
3341;SDS011;1684;50.748;6.154;2023-01-30T00:48:53;53.33;;;26.03;;
3341;SDS011;1684;50.748;6.154;2023-01-30T00:51:21;68.43;;;28.67;;
3341;SDS011;1684;50.748;6.154;2023-01-30T00:53:50;59.07;;;27.17;;
3341;SDS011;1684;50.748;6.154;2023-01-30T00:56:19;54.70;;;27.13;;
3341;SDS011;1684;50.748;6.154;2023-01-30T00:58:47;49.97;;;26.83;;
3341;SDS011;1684;50.748;6.154;2023-01-30T01:01:16;54.53;;;25.30;;
3341;SDS011;1684;50.748;6.154;2023-01-30T01:03:44;58.97;;;29.50;;
3341;SDS011;1684;50.748;6.154;2023-01-30T01:06:12;58.13;;;26.47;;
3341;SDS011;1684;50.748;6.154;2023-01-30T01:08:41;62.23;;;28.97;;
3341;SDS011;1684;50.748;6.154;2023-01-30T01:11:09;57.33;;;26.73;;
3341;SDS011;1684;50.748;6.154;2023-01-30T01:13:51;50.73;;;23.20;;
3341;SDS011;1684;50.748;6.154;2023-01-30T01:16:19;57.97;;;23.37;;
3341;SDS011;1684;50.748;6.154;2023-01-30T01:18:48;63.20;;;26.57;;
3341;SDS011;1684;50.748;6.154;2023-01-30T01:21:16;64.57;;;27.57;;
3341;SDS011;1684;50.748;6.154;2023-01-30T01:23:48;54.93;;;25.27;;
3341;SDS011;1684;50.748;6.154;2023-01-30T01:26:16;62.53;;;30.47;;
3341;SDS011;1684;50.748;6.154;2023-01-30T01:28:44;64.33;;;29.70;;
3341;SDS011;1684;50.748;6.154;2023-01-30T01:31:15;56.60;;;26.90;;
3341;SDS011;1684;50.748;6.154;2023-01-30T01:33:43;52.97;;;27.63;;
3341;SDS011;1684;50.748;6.154;2023-01-30T01:36:11;69.07;;;34.87;;
3341;SDS011;1684;50.748;6.154;2023-01-30T01:39:00;63.73;;;25.97;;
3341;SDS011;1684;50.748;6.154;2023-01-30T01:41:28;55.93;;;26.37;;
3341;SDS011;1684;50.748;6.154;2023-01-30T01:43:58;70.27;;;32.37;;
3341;SDS011;1684;50.748;6.154;2023-01-30T01:46:29;45.80;;;22.93;;
3341;SDS011;1684;50.748;6.154;2023-01-30T01:48:59;64.37;;;25.20;;
3341;SDS011;1684;50.748;6.154;2023-01-30T01:51:28;64.80;;;29.67;;
3341;SDS011;1684;50.748;6.154;2023-01-30T01:53:59;51.10;;;25.40;;
3341;SDS011;1684;50.748;6.154;2023-01-30T01:56:30;63.97;;;29.47;;
3341;SDS011;1684;50.748;6.154;2023-01-30T01:59:00;59.43;;;30.13;;
3341;SDS011;1684;50.748;6.154;2023-01-30T02:01:31;62.23;;;29.50;;
3341;SDS011;1684;50.748;6.154;2023-01-30T02:04:02;55.77;;;26.70;;
3341;SDS011;1684;50.748;6.154;2023-01-30T02:06:34;71.77;;;32.60;;
3341;SDS011;1684;50.748;6.154;2023-01-30T02:09:04;61.37;;;29.33;;
3341;SDS011;1684;50.748;6.154;2023-01-30T02:11:36;71.03;;;27.83;;
3341;SDS011;1684;50.748;6.154;2023-01-30T02:14:06;63.37;;;26.57;;
3341;SDS011;1684;50.748;6.154;2023-01-30T02:16:37;65.00;;;31.93;;
3341;SDS011;1684;50.748;6.154;2023-01-30T02:19:06;87.50;;;39.17;;
3341;SDS011;1684;50.748;6.154;2023-01-30T02:21:53;42.90;;;21.33;;
3341;SDS011;1684;50.748;6.154;2023-01-30T02:27:14;68.40;;;27.60;;
3341;SDS011;1684;50.748;6.154;2023-01-30T02:32:33;75.77;;;28.67;;
3341;SDS011;1684;50.748;6.154;2023-01-30T02:35:04;65.70;;;24.27;;
3341;SDS011;1684;50.748;6.154;2023-01-30T02:37:39;56.87;;;25.90;;
3341;SDS011;1684;50.748;6.154;2023-01-30T02:40:14;65.43;;;29.33;;
3341;SDS011;1684;50.748;6.154;2023-01-30T02:42:46;64.90;;;31.53;;
3341;SDS011;1684;50.748;6.154;2023-01-30T02:45:21;66.20;;;29.77;;
3341;SDS011;1684;50.748;6.154;2023-01-30T02:47:55;63.87;;;24.77;;
3341;SDS011;1684;50.748;6.154;2023-01-30T02:50:25;63.60;;;28.13;;
3341;SDS011;1684;50.748;6.154;2023-01-30T02:52:56;63.73;;;27.67;;
3341;SDS011;1684;50.748;6.154;2023-01-30T02:55:25;59.47;;;27.10;;
3341;SDS011;1684;50.748;6.154;2023-01-30T02:57:54;57.70;;;25.97;;
3341;SDS011;1684;50.748;6.154;2023-01-30T03:00:23;72.03;;;31.77;;
3341;SDS011;1684;50.748;6.154;2023-01-30T03:03:06;51.43;;;25.80;;
3341;SDS011;1684;50.748;6.154;2023-01-30T03:05:49;63.70;;;29.60;;
3341;SDS011;1684;50.748;6.154;2023-01-30T03:08:22;44.80;;;24.30;;
3341;SDS011;1684;50.748;6.154;2023-01-30T03:10:54;46.73;;;24.23;;
3341;SDS011;1684;50.748;6.154;2023-01-30T03:13:26;65.93;;;28.40;;
3341;SDS011;1684;50.748;6.154;2023-01-30T03:15:57;58.30;;;26.07;;
3341;SDS011;1684;50.748;6.154;2023-01-30T03:18:28;51.20;;;26.57;;
3341;SDS011;1684;50.748;6.154;2023-01-30T03:20:56;47.80;;;24.40;;
3341;SDS011;1684;50.748;6.154;2023-01-30T03:23:30;46.07;;;24.97;;
3341;SDS011;1684;50.748;6.154;2023-01-30T03:25:58;49.60;;;23.50;;
3341;SDS011;1684;50.748;6.154;2023-01-30T03:28:27;51.53;;;24.80;;
3341;SDS011;1684;50.748;6.154;2023-01-30T03:30:55;53.33;;;24.63;;
3341;SDS011;1684;50.748;6.154;2023-01-30T03:33:24;61.70;;;28.43;;
3341;SDS011;1684;50.748;6.154;2023-01-30T03:35:53;58.23;;;28.87;;
3341;SDS011;1684;50.748;6.154;2023-01-30T03:38:22;53.57;;;27.43;;
3341;SDS011;1684;50.748;6.154;2023-01-30T03:40:50;46.70;;;25.50;;
3341;SDS011;1684;50.748;6.154;2023-01-30T03:43:19;58.93;;;28.67;;
3341;SDS011;1684;50.748;6.154;2023-01-30T03:45:47;61.40;;;26.03;;
3341;SDS011;1684;50.748;6.154;2023-01-30T03:48:15;50.77;;;27.23;;
3341;SDS011;1684;50.748;6.154;2023-01-30T03:50:43;54.13;;;25.83;;
3341;SDS011;1684;50.748;6.154;2023-01-30T03:53:13;28.30;;;14.97;;
3341;SDS011;1684;50.748;6.154;2023-01-30T03:55:42;37.57;;;20.90;;
3341;SDS011;1684;50.748;6.154;2023-01-30T03:58:11;49.40;;;24.97;;
3341;SDS011;1684;50.748;6.154;2023-01-30T04:00:39;46.23;;;22.40;;
3341;SDS011;1684;50.748;6.154;2023-01-30T04:03:07;50.63;;;23.17;;
3341;SDS011;1684;50.748;6.154;2023-01-30T04:05:35;46.77;;;24.57;;
3341;SDS011;1684;50.748;6.154;2023-01-30T04:08:04;50.20;;;25.93;;
3341;SDS011;1684;50.748;6.154;2023-01-30T04:10:33;38.53;;;21.13;;
3341;SDS011;1684;50.748;6.154;2023-01-30T04:13:02;36.80;;;17.37;;
3341;SDS011;1684;50.748;6.154;2023-01-30T04:15:30;47.23;;;23.53;;
3341;SDS011;1684;50.748;6.154;2023-01-30T04:17:58;44.30;;;19.87;;
3341;SDS011;1684;50.748;6.154;2023-01-30T04:20:26;49.23;;;25.10;;
3341;SDS011;1684;50.748;6.154;2023-01-30T04:22:55;43.87;;;17.37;;
3341;SDS011;1684;50.748;6.154;2023-01-30T04:25:23;50.23;;;24.67;;
3341;SDS011;1684;50.748;6.154;2023-01-30T04:27:53;53.60;;;23.80;;
3341;SDS011;1684;50.748;6.154;2023-01-30T04:30:21;45.07;;;21.73;;
3341;SDS011;1684;50.748;6.154;2023-01-30T04:32:49;51.00;;;23.90;;
3341;SDS011;1684;50.748;6.154;2023-01-30T04:35:17;52.63;;;20.77;;
3341;SDS011;1684;50.748;6.154;2023-01-30T04:37:46;40.60;;;20.30;;
3341;SDS011;1684;50.748;6.154;2023-01-30T04:40:14;60.33;;;29.10;;
3341;SDS011;1684;50.748;6.154;2023-01-30T04:42:42;47.07;;;25.00;;
3341;SDS011;1684;50.748;6.154;2023-01-30T04:45:12;46.43;;;22.57;;
3341;SDS011;1684;50.748;6.154;2023-01-30T04:47:40;64.70;;;33.07;;
3341;SDS011;1684;50.748;6.154;2023-01-30T04:50:09;61.47;;;30.00;;
3341;SDS011;1684;50.748;6.154;2023-01-30T04:52:37;46.83;;;21.90;;
3341;SDS011;1684;50.748;6.154;2023-01-30T04:55:06;39.13;;;19.30;;
3341;SDS011;1684;50.748;6.154;2023-01-30T04:57:34;54.57;;;25.70;;
3341;SDS011;1684;50.748;6.154;2023-01-30T05:00:03;52.70;;;24.27;;
3341;SDS011;1684;50.748;6.154;2023-01-30T05:02:32;45.53;;;24.27;;
3341;SDS011;1684;50.748;6.154;2023-01-30T05:05:01;47.00;;;23.47;;
3341;SDS011;1684;50.748;6.154;2023-01-30T05:07:29;45.13;;;21.63;;
3341;SDS011;1684;50.748;6.154;2023-01-30T05:09:58;53.03;;;26.27;;
3341;SDS011;1684;50.748;6.154;2023-01-30T05:12:28;48.97;;;24.00;;
3341;SDS011;1684;50.748;6.154;2023-01-30T05:14:56;43.27;;;20.43;;
3341;SDS011;1684;50.748;6.154;2023-01-30T05:17:25;52.63;;;23.07;;
3341;SDS011;1684;50.748;6.154;2023-01-30T05:19:55;33.73;;;17.57;;
3341;SDS011;1684;50.748;6.154;2023-01-30T05:22:24;32.37;;;16.80;;
3341;SDS011;1684;50.748;6.154;2023-01-30T05:24:52;43.10;;;21.03;;
3341;SDS011;1684;50.748;6.154;2023-01-30T05:27:20;34.37;;;18.40;;
3341;SDS011;1684;50.748;6.154;2023-01-30T05:29:48;40.00;;;18.80;;
3341;SDS011;1684;50.748;6.154;2023-01-30T05:32:17;41.80;;;18.90;;
3341;SDS011;1684;50.748;6.154;2023-01-30T05:34:47;28.60;;;14.37;;
3341;SDS011;1684;50.748;6.154;2023-01-30T05:37:17;29.63;;;15.57;;
3341;SDS011;1684;50.748;6.154;2023-01-30T05:39:45;31.73;;;16.10;;
3341;SDS011;1684;50.748;6.154;2023-01-30T05:42:13;36.07;;;19.17;;
3341;SDS011;1684;50.748;6.154;2023-01-30T05:44:42;31.20;;;15.27;;
3341;SDS011;1684;50.748;6.154;2023-01-30T05:47:11;28.23;;;16.70;;
3341;SDS011;1684;50.748;6.154;2023-01-30T05:49:39;32.33;;;16.73;;
3341;SDS011;1684;50.748;6.154;2023-01-30T05:52:08;27.47;;;12.87;;
3341;SDS011;1684;50.748;6.154;2023-01-30T05:54:37;26.30;;;14.13;;
3341;SDS011;1684;50.748;6.154;2023-01-30T05:57:05;30.77;;;13.60;;
3341;SDS011;1684;50.748;6.154;2023-01-30T05:59:34;25.63;;;15.33;;
3341;SDS011;1684;50.748;6.154;2023-01-30T06:02:02;28.33;;;14.93;;
3341;SDS011;1684;50.748;6.154;2023-01-30T06:04:30;28.67;;;15.50;;
3341;SDS011;1684;50.748;6.154;2023-01-30T06:06:58;23.63;;;13.27;;
3341;SDS011;1684;50.748;6.154;2023-01-30T06:09:27;29.87;;;13.60;;
3341;SDS011;1684;50.748;6.154;2023-01-30T06:11:56;21.93;;;11.90;;
3341;SDS011;1684;50.748;6.154;2023-01-30T06:14:25;18.87;;;9.03;;
3341;SDS011;1684;50.748;6.154;2023-01-30T06:16:53;25.17;;;12.30;;
3341;SDS011;1684;50.748;6.154;2023-01-30T06:19:21;23.00;;;11.00;;
3341;SDS011;1684;50.748;6.154;2023-01-30T06:21:50;22.17;;;10.93;;
3341;SDS011;1684;50.748;6.154;2023-01-30T06:24:18;15.80;;;11.07;;
3341;SDS011;1684;50.748;6.154;2023-01-30T06:26:46;20.07;;;11.00;;
3341;SDS011;1684;50.748;6.154;2023-01-30T06:29:16;21.63;;;11.00;;
3341;SDS011;1684;50.748;6.154;2023-01-30T06:31:44;19.03;;;10.07;;
3341;SDS011;1684;50.748;6.154;2023-01-30T06:34:13;17.03;;;10.47;;
3341;SDS011;1684;50.748;6.154;2023-01-30T06:36:41;17.23;;;9.67;;
3341;SDS011;1684;50.748;6.154;2023-01-30T06:39:09;19.03;;;10.10;;
3341;SDS011;1684;50.748;6.154;2023-01-30T06:41:37;20.33;;;11.30;;
3341;SDS011;1684;50.748;6.154;2023-01-30T06:44:07;18.13;;;10.03;;
3341;SDS011;1684;50.748;6.154;2023-01-30T06:46:36;16.87;;;9.93;;
3341;SDS011;1684;50.748;6.154;2023-01-30T06:49:05;23.40;;;11.50;;
3341;SDS011;1684;50.748;6.154;2023-01-30T06:51:33;19.70;;;8.97;;
3341;SDS011;1684;50.748;6.154;2023-01-30T06:54:01;17.17;;;10.77;;
3341;SDS011;1684;50.748;6.154;2023-01-30T06:56:29;20.50;;;11.80;;
3341;SDS011;1684;50.748;6.154;2023-01-30T06:58:58;18.80;;;10.20;;
3341;SDS011;1684;50.748;6.154;2023-01-30T07:01:26;22.63;;;10.00;;
3341;SDS011;1684;50.748;6.154;2023-01-30T07:03:55;18.63;;;8.20;;
3341;SDS011;1684;50.748;6.154;2023-01-30T07:06:25;17.33;;;9.87;;
3341;SDS011;1684;50.748;6.154;2023-01-30T07:08:53;13.80;;;7.33;;
3341;SDS011;1684;50.748;6.154;2023-01-30T07:11:23;15.57;;;8.33;;
3341;SDS011;1684;50.748;6.154;2023-01-30T07:13:51;15.90;;;10.10;;
3341;SDS011;1684;50.748;6.154;2023-01-30T07:16:20;19.87;;;10.43;;
3341;SDS011;1684;50.748;6.154;2023-01-30T07:18:54;17.03;;;9.93;;
3341;SDS011;1684;50.748;6.154;2023-01-30T07:21:25;19.10;;;11.33;;
3341;SDS011;1684;50.748;6.154;2023-01-30T07:23:53;15.27;;;8.00;;
3341;SDS011;1684;50.748;6.154;2023-01-30T07:26:21;15.33;;;8.40;;
3341;SDS011;1684;50.748;6.154;2023-01-30T07:28:50;15.90;;;9.60;;
3341;SDS011;1684;50.748;6.154;2023-01-30T07:31:19;25.30;;;12.90;;
3341;SDS011;1684;50.748;6.154;2023-01-30T07:33:47;23.40;;;12.40;;
3341;SDS011;1684;50.748;6.154;2023-01-30T07:36:15;23.63;;;8.23;;
3341;SDS011;1684;50.748;6.154;2023-01-30T07:38:46;19.50;;;11.50;;
3341;SDS011;1684;50.748;6.154;2023-01-30T07:41:14;20.63;;;11.43;;
3341;SDS011;1684;50.748;6.154;2023-01-30T07:43:43;21.30;;;12.33;;
3341;SDS011;1684;50.748;6.154;2023-01-30T07:46:11;23.57;;;12.50;;
3341;SDS011;1684;50.748;6.154;2023-01-30T07:48:39;27.37;;;15.87;;
3341;SDS011;1684;50.748;6.154;2023-01-30T07:51:07;17.70;;;9.30;;
3341;SDS011;1684;50.748;6.154;2023-01-30T07:53:36;24.90;;;16.33;;
3341;SDS011;1684;50.748;6.154;2023-01-30T07:56:06;31.73;;;18.30;;
3341;SDS011;1684;50.748;6.154;2023-01-30T07:58:35;17.97;;;11.20;;
3341;SDS011;1684;50.748;6.154;2023-01-30T08:01:03;19.17;;;9.30;;
3341;SDS011;1684;50.748;6.154;2023-01-30T08:03:31;25.33;;;13.70;;
3341;SDS011;1684;50.748;6.154;2023-01-30T08:06:00;21.70;;;10.00;;
3341;SDS011;1684;50.748;6.154;2023-01-30T08:08:28;18.47;;;7.40;;
3341;SDS011;1684;50.748;6.154;2023-01-30T08:10:56;23.27;;;14.40;;
3341;SDS011;1684;50.748;6.154;2023-01-30T08:13:26;20.40;;;10.63;;
3341;SDS011;1684;50.748;6.154;2023-01-30T08:15:54;14.63;;;7.63;;
3341;SDS011;1684;50.748;6.154;2023-01-30T08:18:22;11.70;;;8.50;;
3341;SDS011;1684;50.748;6.154;2023-01-30T08:20:50;14.37;;;7.77;;
3341;SDS011;1684;50.748;6.154;2023-01-30T08:23:19;17.60;;;11.13;;
3341;SDS011;1684;50.748;6.154;2023-01-30T08:25:47;22.93;;;12.60;;
3341;SDS011;1684;50.748;6.154;2023-01-30T08:28:15;19.87;;;11.87;;
3341;SDS011;1684;50.748;6.154;2023-01-30T08:30:45;22.17;;;10.43;;
3341;SDS011;1684;50.748;6.154;2023-01-30T08:33:14;21.20;;;12.57;;
3341;SDS011;1684;50.748;6.154;2023-01-30T08:35:42;23.70;;;12.87;;
3341;SDS011;1684;50.748;6.154;2023-01-30T08:38:10;29.73;;;15.60;;
3341;SDS011;1684;50.748;6.154;2023-01-30T08:40:39;28.43;;;13.57;;
3341;SDS011;1684;50.748;6.154;2023-01-30T08:43:07;29.17;;;14.77;;
3341;SDS011;1684;50.748;6.154;2023-01-30T08:45:36;33.43;;;16.23;;
3341;SDS011;1684;50.748;6.154;2023-01-30T08:48:06;15.47;;;9.27;;
3341;SDS011;1684;50.748;6.154;2023-01-30T08:50:34;38.70;;;17.40;;
3341;SDS011;1684;50.748;6.154;2023-01-30T08:53:03;30.83;;;14.03;;
3341;SDS011;1684;50.748;6.154;2023-01-30T08:55:32;23.10;;;12.30;;
3341;SDS011;1684;50.748;6.154;2023-01-30T08:58:00;23.87;;;11.23;;
3341;SDS011;1684;50.748;6.154;2023-01-30T09:00:28;27.87;;;14.37;;
3341;SDS011;1684;50.748;6.154;2023-01-30T09:02:57;23.93;;;13.87;;
3341;SDS011;1684;50.748;6.154;2023-01-30T09:05:27;25.50;;;11.90;;
3341;SDS011;1684;50.748;6.154;2023-01-30T09:07:55;12.50;;;7.70;;
3341;SDS011;1684;50.748;6.154;2023-01-30T09:10:24;16.97;;;9.13;;
3341;SDS011;1684;50.748;6.154;2023-01-30T09:12:52;29.00;;;13.30;;
3341;SDS011;1684;50.748;6.154;2023-01-30T09:15:20;18.80;;;9.23;;
3341;SDS011;1684;50.748;6.154;2023-01-30T09:17:50;16.60;;;8.23;;
3341;SDS011;1684;50.748;6.154;2023-01-30T09:20:18;32.47;;;15.20;;
3341;SDS011;1684;50.748;6.154;2023-01-30T09:22:48;13.00;;;6.30;;
3341;SDS011;1684;50.748;6.154;2023-01-30T09:25:16;14.07;;;8.50;;
3341;SDS011;1684;50.748;6.154;2023-01-30T09:27:46;25.00;;;9.93;;
3341;SDS011;1684;50.748;6.154;2023-01-30T09:30:14;18.57;;;9.07;;
3341;SDS011;1684;50.748;6.154;2023-01-30T09:32:44;25.70;;;11.93;;
3341;SDS011;1684;50.748;6.154;2023-01-30T09:35:13;20.83;;;10.00;;
3341;SDS011;1684;50.748;6.154;2023-01-30T09:37:49;16.57;;;7.80;;
3341;SDS011;1684;50.748;6.154;2023-01-30T09:40:19;26.23;;;10.77;;
3341;SDS011;1684;50.748;6.154;2023-01-30T09:42:51;10.60;;;5.00;;
3341;SDS011;1684;50.748;6.154;2023-01-30T09:45:27;16.53;;;7.60;;
3341;SDS011;1684;50.748;6.154;2023-01-30T09:47:58;20.73;;;6.30;;
3341;SDS011;1684;50.748;6.154;2023-01-30T09:50:36;15.03;;;7.80;;
3341;SDS011;1684;50.748;6.154;2023-01-30T09:53:11;26.10;;;8.10;;
3341;SDS011;1684;50.748;6.154;2023-01-30T09:55:41;13.70;;;5.43;;
3341;SDS011;1684;50.748;6.154;2023-01-30T09:58:12;27.63;;;10.80;;
3341;SDS011;1684;50.748;6.154;2023-01-30T10:00:43;12.63;;;5.40;;
3341;SDS011;1684;50.748;6.154;2023-01-30T10:03:13;24.80;;;7.80;;
3341;SDS011;1684;50.748;6.154;2023-01-30T10:05:44;9.17;;;5.13;;
3341;SDS011;1684;50.748;6.154;2023-01-30T10:08:19;21.13;;;6.33;;
3341;SDS011;1684;50.748;6.154;2023-01-30T10:10:48;18.03;;;6.17;;
3341;SDS011;1684;50.748;6.154;2023-01-30T10:13:40;21.80;;;7.20;;
3341;SDS011;1684;50.748;6.154;2023-01-30T10:16:14;16.37;;;6.10;;
3341;SDS011;1684;50.748;6.154;2023-01-30T10:18:50;21.73;;;8.57;;
3341;SDS011;1684;50.748;6.154;2023-01-30T10:21:25;10.00;;;4.63;;
3341;SDS011;1684;50.748;6.154;2023-01-30T10:24:10;16.57;;;5.97;;
3341;SDS011;1684;50.748;6.154;2023-01-30T10:26:41;22.57;;;6.90;;
3341;SDS011;1684;50.748;6.154;2023-01-30T10:29:11;18.53;;;6.10;;
3341;SDS011;1684;50.748;6.154;2023-01-30T10:31:41;17.50;;;7.03;;
3341;SDS011;1684;50.748;6.154;2023-01-30T10:34:11;19.70;;;6.13;;
3341;SDS011;1684;50.748;6.154;2023-01-30T10:36:42;12.67;;;6.10;;
3341;SDS011;1684;50.748;6.154;2023-01-30T10:39:19;13.03;;;5.60;;
3341;SDS011;1684;50.748;6.154;2023-01-30T10:41:51;17.77;;;7.57;;
3341;SDS011;1684;50.748;6.154;2023-01-30T10:44:21;13.20;;;6.53;;
3341;SDS011;1684;50.748;6.154;2023-01-30T10:46:54;12.53;;;6.37;;
3341;SDS011;1684;50.748;6.154;2023-01-30T10:49:28;17.40;;;8.23;;
3341;SDS011;1684;50.748;6.154;2023-01-30T10:52:01;11.23;;;5.93;;
3341;SDS011;1684;50.748;6.154;2023-01-30T10:54:36;4.63;;;1.83;;
3341;SDS011;1684;50.748;6.154;2023-01-30T10:57:12;11.00;;;6.00;;
3341;SDS011;1684;50.748;6.154;2023-01-30T10:59:47;17.63;;;6.33;;
3341;SDS011;1684;50.748;6.154;2023-01-30T11:02:22;18.13;;;7.80;;
3341;SDS011;1684;50.748;6.154;2023-01-30T11:04:58;11.60;;;4.87;;
3341;SDS011;1684;50.748;6.154;2023-01-30T11:07:27;20.03;;;9.30;;
3341;SDS011;1684;50.748;6.154;2023-01-30T11:09:58;12.77;;;6.23;;
3341;SDS011;1684;50.748;6.154;2023-01-30T11:12:26;16.70;;;7.80;;
3341;SDS011;1684;50.748;6.154;2023-01-30T11:14:56;12.17;;;4.90;;
3341;SDS011;1684;50.748;6.154;2023-01-30T11:17:29;20.40;;;6.43;;
3341;SDS011;1684;50.748;6.154;2023-01-30T11:20:00;16.27;;;6.03;;
3341;SDS011;1684;50.748;6.154;2023-01-30T11:22:30;10.07;;;3.07;;
3341;SDS011;1684;50.748;6.154;2023-01-30T11:25:02;12.43;;;5.80;;
3341;SDS011;1684;50.748;6.154;2023-01-30T11:27:32;14.63;;;3.10;;
3341;SDS011;1684;50.748;6.154;2023-01-30T11:30:05;10.63;;;3.10;;
3341;SDS011;1684;50.748;6.154;2023-01-30T11:32:33;14.53;;;4.33;;
3341;SDS011;1684;50.748;6.154;2023-01-30T11:35:06;17.03;;;4.67;;
3341;SDS011;1684;50.748;6.154;2023-01-30T11:37:43;9.30;;;3.73;;
3341;SDS011;1684;50.748;6.154;2023-01-30T11:40:20;23.37;;;5.80;;
3341;SDS011;1684;50.748;6.154;2023-01-30T11:42:51;16.30;;;4.67;;
3341;SDS011;1684;50.748;6.154;2023-01-30T11:45:23;4.07;;;2.13;;
3341;SDS011;1684;50.748;6.154;2023-01-30T11:47:55;9.00;;;3.67;;
3341;SDS011;1684;50.748;6.154;2023-01-30T11:50:32;8.23;;;2.77;;
3341;SDS011;1684;50.748;6.154;2023-01-30T11:53:10;11.57;;;3.30;;
3341;SDS011;1684;50.748;6.154;2023-01-30T11:55:42;14.20;;;4.47;;
3341;SDS011;1684;50.748;6.154;2023-01-30T11:58:28;11.90;;;4.27;;
3341;SDS011;1684;50.748;6.154;2023-01-30T12:00:57;14.53;;;5.27;;
3341;SDS011;1684;50.748;6.154;2023-01-30T12:03:26;19.10;;;5.27;;
3341;SDS011;1684;50.748;6.154;2023-01-30T12:05:56;15.30;;;4.10;;
3341;SDS011;1684;50.748;6.154;2023-01-30T12:08:25;10.80;;;2.70;;
3341;SDS011;1684;50.748;6.154;2023-01-30T12:11:22;18.30;;;5.70;;
3341;SDS011;1684;50.748;6.154;2023-01-30T12:13:51;18.30;;;4.63;;
3341;SDS011;1684;50.748;6.154;2023-01-30T12:16:21;12.70;;;5.63;;
3341;SDS011;1684;50.748;6.154;2023-01-30T12:18:53;7.07;;;3.30;;
3341;SDS011;1684;50.748;6.154;2023-01-30T12:21:25;8.47;;;3.17;;
3341;SDS011;1684;50.748;6.154;2023-01-30T12:23:55;22.37;;;5.13;;
3341;SDS011;1684;50.748;6.154;2023-01-30T12:26:27;9.83;;;3.83;;
3341;SDS011;1684;50.748;6.154;2023-01-30T12:29:00;10.60;;;3.37;;
3341;SDS011;1684;50.748;6.154;2023-01-30T12:31:30;9.70;;;2.73;;
3341;SDS011;1684;50.748;6.154;2023-01-30T12:34:01;13.33;;;3.80;;
3341;SDS011;1684;50.748;6.154;2023-01-30T12:36:31;11.23;;;3.57;;
3341;SDS011;1684;50.748;6.154;2023-01-30T12:39:04;12.80;;;4.00;;
3341;SDS011;1684;50.748;6.154;2023-01-30T12:44:29;11.13;;;4.13;;
3341;SDS011;1684;50.748;6.154;2023-01-30T12:47:05;7.50;;;2.90;;
3341;SDS011;1684;50.748;6.154;2023-01-30T12:49:42;7.70;;;1.70;;
3341;SDS011;1684;50.748;6.154;2023-01-30T12:52:24;10.73;;;4.13;;
3341;SDS011;1684;50.748;6.154;2023-01-30T12:54:56;14.53;;;3.80;;
3341;SDS011;1684;50.748;6.154;2023-01-30T12:57:30;19.20;;;4.40;;
3341;SDS011;1684;50.748;6.154;2023-01-30T13:00:15;12.37;;;2.93;;
3341;SDS011;1684;50.748;6.154;2023-01-30T13:02:47;7.37;;;2.13;;
3341;SDS011;1684;50.748;6.154;2023-01-30T13:05:24;12.80;;;3.87;;
3341;SDS011;1684;50.748;6.154;2023-01-30T13:08:05;17.97;;;4.53;;
3341;SDS011;1684;50.748;6.154;2023-01-30T13:10:38;10.57;;;2.20;;
3341;SDS011;1684;50.748;6.154;2023-01-30T13:13:10;9.37;;;3.40;;
3341;SDS011;1684;50.748;6.154;2023-01-30T13:15:43;16.67;;;3.13;;
3341;SDS011;1684;50.748;6.154;2023-01-30T13:18:12;14.13;;;4.07;;
3341;SDS011;1684;50.748;6.154;2023-01-30T13:20:45;13.53;;;3.90;;
3341;SDS011;1684;50.748;6.154;2023-01-30T13:23:17;9.67;;;2.90;;
3341;SDS011;1684;50.748;6.154;2023-01-30T13:25:47;19.57;;;3.30;;
3341;SDS011;1684;50.748;6.154;2023-01-30T13:28:20;14.20;;;4.33;;
3341;SDS011;1684;50.748;6.154;2023-01-30T13:30:52;11.27;;;4.10;;
3341;SDS011;1684;50.748;6.154;2023-01-30T13:33:23;13.53;;;3.70;;
3341;SDS011;1684;50.748;6.154;2023-01-30T13:35:53;4.33;;;2.27;;
3341;SDS011;1684;50.748;6.154;2023-01-30T13:38:24;19.83;;;3.10;;
3341;SDS011;1684;50.748;6.154;2023-01-30T13:40:54;11.03;;;2.23;;
3341;SDS011;1684;50.748;6.154;2023-01-30T13:43:24;11.53;;;3.57;;
3341;SDS011;1684;50.748;6.154;2023-01-30T13:45:56;13.30;;;4.07;;
3341;SDS011;1684;50.748;6.154;2023-01-30T13:48:29;7.93;;;2.33;;
3341;SDS011;1684;50.748;6.154;2023-01-30T13:51:06;7.47;;;2.80;;
3341;SDS011;1684;50.748;6.154;2023-01-30T13:53:40;13.67;;;3.97;;
3341;SDS011;1684;50.748;6.154;2023-01-30T13:56:12;9.53;;;3.33;;
3341;SDS011;1684;50.748;6.154;2023-01-30T13:59:03;20.17;;;4.67;;
3341;SDS011;1684;50.748;6.154;2023-01-30T14:04:42;10.33;;;3.53;;
3341;SDS011;1684;50.748;6.154;2023-01-30T14:07:13;13.37;;;3.67;;
3341;SDS011;1684;50.748;6.154;2023-01-30T14:09:43;3.83;;;1.53;;
3341;SDS011;1684;50.748;6.154;2023-01-30T14:12:15;8.73;;;3.20;;
3341;SDS011;1684;50.748;6.154;2023-01-30T14:14:55;11.90;;;3.73;;
3341;SDS011;1684;50.748;6.154;2023-01-30T14:17:24;21.60;;;4.13;;
3341;SDS011;1684;50.748;6.154;2023-01-30T14:20:10;25.33;;;3.23;;
3341;SDS011;1684;50.748;6.154;2023-01-30T14:22:47;11.10;;;3.67;;
3341;SDS011;1684;50.748;6.154;2023-01-30T14:25:30;28.90;;;6.00;;
3341;SDS011;1684;50.748;6.154;2023-01-30T14:30:48;6.40;;;2.70;;
3341;SDS011;1684;50.748;6.154;2023-01-30T14:38:56;8.43;;;2.23;;
3341;SDS011;1684;50.748;6.154;2023-01-30T14:41:44;17.00;;;3.80;;
3341;SDS011;1684;50.748;6.154;2023-01-30T14:47:26;11.13;;;1.87;;
3341;SDS011;1684;50.748;6.154;2023-01-30T14:50:15;16.77;;;4.30;;
3341;SDS011;1684;50.748;6.154;2023-01-30T14:52:45;11.23;;;2.77;;
3341;SDS011;1684;50.748;6.154;2023-01-30T14:55:18;3.83;;;1.37;;
3341;SDS011;1684;50.748;6.154;2023-01-30T14:57:52;3.37;;;1.60;;
3341;SDS011;1684;50.748;6.154;2023-01-30T15:00:23;6.90;;;1.57;;
3341;SDS011;1684;50.748;6.154;2023-01-30T15:02:55;4.90;;;1.03;;
3341;SDS011;1684;50.748;6.154;2023-01-30T15:05:25;9.47;;;3.10;;
3341;SDS011;1684;50.748;6.154;2023-01-30T15:07:55;10.67;;;2.70;;
3341;SDS011;1684;50.748;6.154;2023-01-30T15:10:37;10.87;;;3.27;;
3341;SDS011;1684;50.748;6.154;2023-01-30T15:13:12;2.90;;;1.10;;
3341;SDS011;1684;50.748;6.154;2023-01-30T15:15:45;3.70;;;1.47;;
3341;SDS011;1684;50.748;6.154;2023-01-30T15:18:24;7.23;;;1.63;;
3341;SDS011;1684;50.748;6.154;2023-01-30T15:20:59;11.57;;;3.30;;
3341;SDS011;1684;50.748;6.154;2023-01-30T15:23:40;7.37;;;2.53;;
3341;SDS011;1684;50.748;6.154;2023-01-30T15:26:15;6.50;;;3.20;;
3341;SDS011;1684;50.748;6.154;2023-01-30T15:28:51;5.37;;;2.10;;
3341;SDS011;1684;50.748;6.154;2023-01-30T15:31:23;5.50;;;2.57;;
3341;SDS011;1684;50.748;6.154;2023-01-30T15:33:53;8.90;;;2.17;;
3341;SDS011;1684;50.748;6.154;2023-01-30T15:36:24;14.43;;;2.80;;
3341;SDS011;1684;50.748;6.154;2023-01-30T15:38:56;11.57;;;4.17;;
3341;SDS011;1684;50.748;6.154;2023-01-30T15:41:26;16.20;;;3.90;;